Terminal Aerodrome Forecast
Issued by NWS

Home | Current Version | Previous Version | Text Only | Print | Product List | Glossary Off
Versions: 1 2 3 4 5 6 7 8 9 10 11 12 13 14 15 16 17 18

000
FTUS43 KICT 181500 AAB
TAFRSL
TAF AMD
KRSL 181507Z 1815/1912 08007KT 2SM BR BKN005
      TEMPO 1815/1818 6SM BR SCT009 BKN025
     FM181800 12008KT P6SM BKN035
     FM190700 15009KT P6SM SCT012 BKN035=

USA.gov is the U.S. government's official web portal to all federal, state and local government web resources and services.